Terminal Aerodrome Forecast
Issued by NWS

Home | Current Version | Previous Version | Text Only | Print | Product List | Glossary On
Versions: 1 2 3 4 5 6 7 8 9 10 11 12 13 14 15
000
FTUS44 KMAF 230520
TAFINK
TAF
KINK 230520Z 2306/2406 14010KT P6SM SCT110 BKN250
     FM231100 02014G22KT P6SM OVC015
      TEMPO 2311/2315 6SM -RA BR OVC007
     FM232100 01011KT P6SM OVC050=

USA.gov is the U.S. government's official web portal to all federal, state and local government web resources and services.